sensor_id;sensor_type;location;lat;lon;timestamp;temperature;humidity
8269;DHT22;4174;48.304;16.364;2024-03-23T00:56:57;13.50;99.90
8269;DHT22;4174;48.304;16.364;2024-03-23T01:03:02;13.30;99.90
8269;DHT22;4174;48.304;16.364;2024-03-23T01:09:07;13.20;99.90
8269;DHT22;4174;48.304;16.364;2024-03-23T01:15:11;13.30;99.90
8269;DHT22;4174;48.304;16.364;2024-03-23T01:21:14;13.30;99.90
8269;DHT22;4174;48.304;16.364;2024-03-23T01:27:18;13.30;99.90
8269;DHT22;4174;48.304;16.364;2024-03-23T01:33:23;13.30;99.90
8269;DHT22;4174;48.304;16.364;2024-03-23T01:39:26;13.30;99.90
8269;DHT22;4174;48.304;16.364;2024-03-23T01:45:31;13.30;99.90
8269;DHT22;4174;48.304;16.364;2024-03-23T01:51:35;13.30;99.90
8269;DHT22;4174;48.304;16.364;2024-03-23T01:57:38;13.30;99.90
8269;DHT22;4174;48.304;16.364;2024-03-23T02:03:42;13.30;99.90
8269;DHT22;4174;48.304;16.364;2024-03-23T02:09:45;13.30;99.90
8269;DHT22;4174;48.304;16.364;2024-03-23T02:15:49;13.30;99.90
8269;DHT22;4174;48.304;16.364;2024-03-23T02:21:53;13.10;99.90
8269;DHT22;4174;48.304;16.364;2024-03-23T02:27:56;13.10;99.90
8269;DHT22;4174;48.304;16.364;2024-03-23T02:34:00;13.10;99.90
8269;DHT22;4174;48.304;16.364;2024-03-23T02:40:05;13.20;99.90
8269;DHT22;4174;48.304;16.364;2024-03-23T02:46:10;13.20;99.90
8269;DHT22;4174;48.304;16.364;2024-03-23T02:52:14;13.20;99.90
8269;DHT22;4174;48.304;16.364;2024-03-23T02:58:18;13.10;99.90
8269;DHT22;4174;48.304;16.364;2024-03-23T03:04:22;13.10;99.90
8269;DHT22;4174;48.304;16.364;2024-03-23T03:10:26;13.10;99.90
8269;DHT22;4174;48.304;16.364;2024-03-23T03:16:30;13.10;99.90
8269;DHT22;4174;48.304;16.364;2024-03-23T03:22:34;13.10;99.90
8269;DHT22;4174;48.304;16.364;2024-03-23T03:28:38;13.10;99.90
8269;DHT22;4174;48.304;16.364;2024-03-23T03:34:42;12.90;99.90
8269;DHT22;4174;48.304;16.364;2024-03-23T03:40:46;12.80;99.90
8269;DHT22;4174;48.304;16.364;2024-03-23T03:46:50;12.70;99.90
8269;DHT22;4174;48.304;16.364;2024-03-23T03:52:54;12.70;99.90
8269;DHT22;4174;48.304;16.364;2024-03-23T03:58:57;12.80;99.90
8269;DHT22;4174;48.304;16.364;2024-03-23T04:05:01;12.90;99.90
8269;DHT22;4174;48.304;16.364;2024-03-23T04:11:05;12.80;99.90
8269;DHT22;4174;48.304;16.364;2024-03-23T04:17:08;12.80;99.90
8269;DHT22;4174;48.304;16.364;2024-03-23T04:23:12;12.70;99.90
8269;DHT22;4174;48.304;16.364;2024-03-23T04:29:17;12.50;99.90
8269;DHT22;4174;48.304;16.364;2024-03-23T04:35:21;12.50;99.90
8269;DHT22;4174;48.304;16.364;2024-03-23T04:41:25;12.50;99.90
8269;DHT22;4174;48.304;16.364;2024-03-23T04:47:29;12.60;99.90
8269;DHT22;4174;48.304;16.364;2024-03-23T04:53:33;12.60;99.90
8269;DHT22;4174;48.304;16.364;2024-03-23T04:59:36;12.70;99.90
8269;DHT22;4174;48.304;16.364;2024-03-23T05:05:40;12.60;99.90
8269;DHT22;4174;48.304;16.364;2024-03-23T05:11:44;12.60;99.90
8269;DHT22;4174;48.304;16.364;2024-03-23T05:17:47;12.70;99.90
8269;DHT22;4174;48.304;16.364;2024-03-23T05:23:53;12.70;99.90
8269;DHT22;4174;48.304;16.364;2024-03-23T05:29:55;12.80;99.90
8269;DHT22;4174;48.304;16.364;2024-03-23T05:35:59;12.80;99.90
8269;DHT22;4174;48.304;16.364;2024-03-23T05:42:02;12.90;99.90
8269;DHT22;4174;48.304;16.364;2024-03-23T05:48:07;12.90;99.90
8269;DHT22;4174;48.304;16.364;2024-03-23T05:54:11;13.10;99.90
8269;DHT22;4174;48.304;16.364;2024-03-23T06:00:15;13.20;99.90
8269;DHT22;4174;48.304;16.364;2024-03-23T06:06:19;13.30;99.90
8269;DHT22;4174;48.304;16.364;2024-03-23T06:12:23;13.30;99.90
8269;DHT22;4174;48.304;16.364;2024-03-23T06:18:27;13.30;99.90
8269;DHT22;4174;48.304;16.364;2024-03-23T06:24:31;13.20;99.90
8269;DHT22;4174;48.304;16.364;2024-03-23T06:30:35;13.20;99.90
8269;DHT22;4174;48.304;16.364;2024-03-23T06:36:39;12.50;99.90
8269;DHT22;4174;48.304;16.364;2024-03-23T06:42:43;12.60;99.90
8269;DHT22;4174;48.304;16.364;2024-03-23T06:48:46;12.70;99.90
8269;DHT22;4174;48.304;16.364;2024-03-23T06:54:50;13.00;99.90
8269;DHT22;4174;48.304;16.364;2024-03-23T07:00:55;13.50;99.90
8269;DHT22;4174;48.304;16.364;2024-03-23T07:06:59;13.50;99.90
8269;DHT22;4174;48.304;16.364;2024-03-23T07:13:02;13.80;99.90
8269;DHT22;4174;48.304;16.364;2024-03-23T07:19:07;13.50;99.90
8269;DHT22;4174;48.304;16.364;2024-03-23T07:25:10;13.90;99.90
8269;DHT22;4174;48.304;16.364;2024-03-23T07:31:15;14.10;99.90
8269;DHT22;4174;48.304;16.364;2024-03-23T07:37:19;14.40;99.90
8269;DHT22;4174;48.304;16.364;2024-03-23T07:43:24;14.50;99.90
8269;DHT22;4174;48.304;16.364;2024-03-23T07:49:29;14.80;99.90
8269;DHT22;4174;48.304;16.364;2024-03-23T07:55:33;14.80;99.90
8269;DHT22;4174;48.304;16.364;2024-03-23T08:01:37;15.70;99.90
8269;DHT22;4174;48.304;16.364;2024-03-23T08:07:40;17.10;99.90
8269;DHT22;4174;48.304;16.364;2024-03-23T08:13:44;18.10;99.90
8269;DHT22;4174;48.304;16.364;2024-03-23T08:19:50;18.70;99.90
8269;DHT22;4174;48.304;16.364;2024-03-23T08:26:01;18.70;99.90
8269;DHT22;4174;48.304;16.364;2024-03-23T08:32:07;18.40;99.90
8269;DHT22;4174;48.304;16.364;2024-03-23T08:38:11;19.20;99.90
8269;DHT22;4174;48.304;16.364;2024-03-23T08:44:16;19.90;99.90
8269;DHT22;4174;48.304;16.364;2024-03-23T08:50:19;20.60;97.90
8269;DHT22;4174;48.304;16.364;2024-03-23T08:56:23;21.80;91.70
8269;DHT22;4174;48.304;16.364;2024-03-23T09:02:27;22.90;84.50
8269;DHT22;4174;48.304;16.364;2024-03-23T09:08:31;23.30;80.00
8269;DHT22;4174;48.304;16.364;2024-03-23T09:14:35;22.80;78.00
8269;DHT22;4174;48.304;16.364;2024-03-23T09:20:38;23.00;73.10
8269;DHT22;4174;48.304;16.364;2024-03-23T09:26:42;23.80;71.50
8269;DHT22;4174;48.304;16.364;2024-03-23T09:32:46;23.60;65.20
8269;DHT22;4174;48.304;16.364;2024-03-23T09:38:49;24.30;66.10
8269;DHT22;4174;48.304;16.364;2024-03-23T09:44:53;24.90;63.90
8269;DHT22;4174;48.304;16.364;2024-03-23T09:50:56;24.60;58.20
8269;DHT22;4174;48.304;16.364;2024-03-23T09:57:00;23.90;64.00
8269;DHT22;4174;48.304;16.364;2024-03-23T10:03:04;23.80;61.20
8269;DHT22;4174;48.304;16.364;2024-03-23T10:09:21;22.70;59.40
8269;DHT22;4174;48.304;16.364;2024-03-23T10:15:25;22.70;59.30
8269;DHT22;4174;48.304;16.364;2024-03-23T10:21:28;23.50;61.30
8269;DHT22;4174;48.304;16.364;2024-03-23T10:27:32;24.00;59.00
8269;DHT22;4174;48.304;16.364;2024-03-23T10:33:36;25.60;55.80
8269;DHT22;4174;48.304;16.364;2024-03-23T10:39:40;26.60;53.10
8269;DHT22;4174;48.304;16.364;2024-03-23T10:45:43;27.00;49.60
8269;DHT22;4174;48.304;16.364;2024-03-23T10:51:47;26.80;53.10
8269;DHT22;4174;48.304;16.364;2024-03-23T10:57:51;27.70;50.70
8269;DHT22;4174;48.304;16.364;2024-03-23T11:03:53;27.30;48.10
8269;DHT22;4174;48.304;16.364;2024-03-23T11:09:58;27.30;49.60
8269;DHT22;4174;48.304;16.364;2024-03-23T11:16:12;28.30;46.30
8269;DHT22;4174;48.304;16.364;2024-03-23T11:22:04;28.60;47.00
8269;DHT22;4174;48.304;16.364;2024-03-23T11:28:11;28.90;44.60
8269;DHT22;4174;48.304;16.364;2024-03-23T11:34:15;28.40;43.00
8269;DHT22;4174;48.304;16.364;2024-03-23T11:40:20;28.00;44.50
8269;DHT22;4174;48.304;16.364;2024-03-23T11:46:30;29.00;44.80
8269;DHT22;4174;48.304;16.364;2024-03-23T11:52:35;29.00;44.20
8269;DHT22;4174;48.304;16.364;2024-03-23T11:58:38;26.20;44.50
8269;DHT22;4174;48.304;16.364;2024-03-23T12:04:43;25.60;46.30
8269;DHT22;4174;48.304;16.364;2024-03-23T12:10:48;25.60;46.20
8269;DHT22;4174;48.304;16.364;2024-03-23T12:16:49;25.20;47.20
8269;DHT22;4174;48.304;16.364;2024-03-23T12:23:04;24.30;48.30
8269;DHT22;4174;48.304;16.364;2024-03-23T12:28:56;23.70;49.80
8269;DHT22;4174;48.304;16.364;2024-03-23T12:34:59;23.10;50.90
8269;DHT22;4174;48.304;16.364;2024-03-23T12:41:03;24.00;50.60
8269;DHT22;4174;48.304;16.364;2024-03-23T12:47:07;23.60;50.80
8269;DHT22;4174;48.304;16.364;2024-03-23T12:53:11;22.80;51.40
8269;DHT22;4174;48.304;16.364;2024-03-23T12:59:14;22.20;52.00
8269;DHT22;4174;48.304;16.364;2024-03-23T13:05:18;20.70;58.50
8269;DHT22;4174;48.304;16.364;2024-03-23T13:11:22;17.60;99.90
8269;DHT22;4174;48.304;16.364;2024-03-23T13:17:27;17.60;99.90
8269;DHT22;4174;48.304;16.364;2024-03-23T13:23:30;18.20;99.90
8269;DHT22;4174;48.304;16.364;2024-03-23T13:29:35;16.60;99.90
8269;DHT22;4174;48.304;16.364;2024-03-23T13:35:39;16.50;99.90
8269;DHT22;4174;48.304;16.364;2024-03-23T13:41:44;15.80;99.90
8269;DHT22;4174;48.304;16.364;2024-03-23T13:47:47;15.50;99.90
8269;DHT22;4174;48.304;16.364;2024-03-23T13:53:50;15.30;99.90
8269;DHT22;4174;48.304;16.364;2024-03-23T13:59:56;15.40;99.90
8269;DHT22;4174;48.304;16.364;2024-03-23T14:05:59;15.40;99.90
8269;DHT22;4174;48.304;16.364;2024-03-23T14:12:03;15.40;99.90
8269;DHT22;4174;48.304;16.364;2024-03-23T14:18:08;14.90;99.90
8269;DHT22;4174;48.304;16.364;2024-03-23T14:24:12;14.90;99.90
8269;DHT22;4174;48.304;16.364;2024-03-23T14:30:16;14.20;99.90
8269;DHT22;4174;48.304;16.364;2024-03-23T14:36:21;13.40;99.90
8269;DHT22;4174;48.304;16.364;2024-03-23T14:42:27;13.10;99.90
8269;DHT22;4174;48.304;16.364;2024-03-23T14:48:30;12.80;99.90
8269;DHT22;4174;48.304;16.364;2024-03-23T14:54:35;12.60;99.90
8269;DHT22;4174;48.304;16.364;2024-03-23T15:00:38;12.10;99.90
8269;DHT22;4174;48.304;16.364;2024-03-23T15:06:42;11.70;99.90
8269;DHT22;4174;48.304;16.364;2024-03-23T15:12:46;11.60;99.90
8269;DHT22;4174;48.304;16.364;2024-03-23T15:18:50;11.40;99.90
8269;DHT22;4174;48.304;16.364;2024-03-23T15:24:54;10.90;99.90
8269;DHT22;4174;48.304;16.364;2024-03-23T15:31:04;10.60;99.90
8269;DHT22;4174;48.304;16.364;2024-03-23T15:37:07;9.70;99.90
8269;DHT22;4174;48.304;16.364;2024-03-23T15:43:11;9.20;99.90
8269;DHT22;4174;48.304;16.364;2024-03-23T15:49:15;9.30;99.90
8269;DHT22;4174;48.304;16.364;2024-03-23T15:55:18;9.30;99.90
8269;DHT22;4174;48.304;16.364;2024-03-23T16:01:22;9.70;99.90
8269;DHT22;4174;48.304;16.364;2024-03-23T16:07:27;9.60;99.90
8269;DHT22;4174;48.304;16.364;2024-03-23T16:13:30;9.70;99.90
8269;DHT22;4174;48.304;16.364;2024-03-23T16:19:33;9.70;99.90
8269;DHT22;4174;48.304;16.364;2024-03-23T16:25:36;9.60;99.90
8269;DHT22;4174;48.304;16.364;2024-03-23T16:31:40;9.70;99.90
8269;DHT22;4174;48.304;16.364;2024-03-23T16:37:45;9.60;99.90
8269;DHT22;4174;48.304;16.364;2024-03-23T16:43:46;9.60;99.90
8269;DHT22;4174;48.304;16.364;2024-03-23T16:49:50;9.70;99.90
8269;DHT22;4174;48.304;16.364;2024-03-23T16:55:58;9.60;99.90
8269;DHT22;4174;48.304;16.364;2024-03-23T17:02:01;9.50;99.90
8269;DHT22;4174;48.304;16.364;2024-03-23T17:08:07;9.50;99.90
8269;DHT22;4174;48.304;16.364;2024-03-23T17:14:11;9.40;99.90
8269;DHT22;4174;48.304;16.364;2024-03-23T17:20:14;9.50;99.90
8269;DHT22;4174;48.304;16.364;2024-03-23T17:26:17;9.60;99.90
8269;DHT22;4174;48.304;16.364;2024-03-23T17:32:21;9.80;99.90
8269;DHT22;4174;48.304;16.364;2024-03-23T17:38:25;9.70;99.90
8269;DHT22;4174;48.304;16.364;2024-03-23T17:44:29;9.70;99.90
8269;DHT22;4174;48.304;16.364;2024-03-23T17:50:33;9.70;99.90
8269;DHT22;4174;48.304;16.364;2024-03-23T17:56:37;9.70;99.90
8269;DHT22;4174;48.304;16.364;2024-03-23T18:02:41;9.80;99.90
8269;DHT22;4174;48.304;16.364;2024-03-23T18:08:46;9.70;99.90
8269;DHT22;4174;48.304;16.364;2024-03-23T18:14:49;9.70;99.90
8269;DHT22;4174;48.304;16.364;2024-03-23T18:20:52;9.70;99.90
8269;DHT22;4174;48.304;16.364;2024-03-23T18:26:55;9.60;99.90
8269;DHT22;4174;48.304;16.364;2024-03-23T18:32:59;9.50;99.90
8269;DHT22;4174;48.304;16.364;2024-03-23T18:39:02;9.60;99.90
8269;DHT22;4174;48.304;16.364;2024-03-23T18:45:06;9.80;99.90
8269;DHT22;4174;48.304;16.364;2024-03-23T18:51:10;9.80;99.90
8269;DHT22;4174;48.304;16.364;2024-03-23T18:57:15;9.60;99.90
8269;DHT22;4174;48.304;16.364;2024-03-23T19:03:18;9.60;99.90
8269;DHT22;4174;48.304;16.364;2024-03-23T19:09:22;9.60;99.90
8269;DHT22;4174;48.304;16.364;2024-03-23T19:15:26;9.70;99.90
8269;DHT22;4174;48.304;16.364;2024-03-23T19:21:30;9.40;99.90
8269;DHT22;4174;48.304;16.364;2024-03-23T19:27:34;9.40;99.90
8269;DHT22;4174;48.304;16.364;2024-03-23T19:33:39;9.30;99.90
8269;DHT22;4174;48.304;16.364;2024-03-23T19:39:44;9.40;99.90
8269;DHT22;4174;48.304;16.364;2024-03-23T19:45:47;9.30;99.90
8269;DHT22;4174;48.304;16.364;2024-03-23T19:51:51;9.20;99.90
8269;DHT22;4174;48.304;16.364;2024-03-23T19:57:55;9.20;99.90
8269;DHT22;4174;48.304;16.364;2024-03-23T20:03:59;9.00;99.90
8269;DHT22;4174;48.304;16.364;2024-03-23T20:10:03;8.80;99.90
8269;DHT22;4174;48.304;16.364;2024-03-23T20:16:08;8.70;99.90
8269;DHT22;4174;48.304;16.364;2024-03-23T20:22:11;8.60;99.90
8269;DHT22;4174;48.304;16.364;2024-03-23T20:28:15;8.60;99.90
8269;DHT22;4174;48.304;16.364;2024-03-23T20:34:18;8.60;99.90
8269;DHT22;4174;48.304;16.364;2024-03-23T20:40:21;8.60;99.90
8269;DHT22;4174;48.304;16.364;2024-03-23T20:46:25;8.50;99.90
8269;DHT22;4174;48.304;16.364;2024-03-23T20:52:30;8.40;99.90
8269;DHT22;4174;48.304;16.364;2024-03-23T20:58:33;8.50;99.90
8269;DHT22;4174;48.304;16.364;2024-03-23T21:04:37;8.50;99.90
8269;DHT22;4174;48.304;16.364;2024-03-23T21:10:47;8.50;99.90
8269;DHT22;4174;48.304;16.364;2024-03-23T21:16:45;8.50;99.90
8269;DHT22;4174;48.304;16.364;2024-03-23T21:22:50;8.40;99.90
8269;DHT22;4174;48.304;16.364;2024-03-23T21:28:54;8.40;99.90
8269;DHT22;4174;48.304;16.364;2024-03-23T21:34:58;8.50;99.90
8269;DHT22;4174;48.304;16.364;2024-03-23T21:41:01;8.50;99.90
8269;DHT22;4174;48.304;16.364;2024-03-23T21:47:05;8.40;99.90
8269;DHT22;4174;48.304;16.364;2024-03-23T21:53:08;8.40;99.90
8269;DHT22;4174;48.304;16.364;2024-03-23T21:59:12;8.40;99.90
8269;DHT22;4174;48.304;16.364;2024-03-23T22:05:17;8.40;99.90
8269;DHT22;4174;48.304;16.364;2024-03-23T22:11:21;8.10;99.90
8269;DHT22;4174;48.304;16.364;2024-03-23T22:17:25;8.10;99.90
8269;DHT22;4174;48.304;16.364;2024-03-23T22:23:29;8.00;99.90
8269;DHT22;4174;48.304;16.364;2024-03-23T22:29:32;7.80;99.90
8269;DHT22;4174;48.304;16.364;2024-03-23T22:35:36;7.70;99.90
8269;DHT22;4174;48.304;16.364;2024-03-23T22:41:40;7.50;99.90
8269;DHT22;4174;48.304;16.364;2024-03-23T22:47:43;7.60;99.90
8269;DHT22;4174;48.304;16.364;2024-03-23T22:53:47;7.50;99.90
8269;DHT22;4174;48.304;16.364;2024-03-23T22:59:50;7.40;99.90
8269;DHT22;4174;48.304;16.364;2024-03-23T23:06:01;7.40;99.90
8269;DHT22;4174;48.304;16.364;2024-03-23T23:12:05;7.20;99.90
8269;DHT22;4174;48.304;16.364;2024-03-23T23:18:09;7.10;99.90
8269;DHT22;4174;48.304;16.364;2024-03-23T23:24:12;7.10;99.90
8269;DHT22;4174;48.304;16.364;2024-03-23T23:30:16;7.10;99.90
8269;DHT22;4174;48.304;16.364;2024-03-23T23:36:21;7.00;99.90
8269;DHT22;4174;48.304;16.364;2024-03-23T23:42:24;6.80;99.90
8269;DHT22;4174;48.304;16.364;2024-03-23T23:48:29;6.80;99.90
8269;DHT22;4174;48.304;16.364;2024-03-23T23:54:34;6.80;99.90
